Time;durP1;ratioP1;P1;durP2;ratioP2;P2;SDS_P1;SDS_P2;PMS_P1;PMS_P2;Temp;Humidity;BMP_temperature;BMP_pressure;BME280_temperature;BME280_humidity;BME280_pressure;Samples;Min_cycle;Max_cycle;Signal;HPM_P1;HPM_P2
2023/01/10 00:00:40;;;;;;;2.65;1.55;;;6.40;99.90;;;;;;6176058;28;20394;-82
2023/01/10 00:03:42;;;;;;;4.90;2.03;;;6.40;99.90;;;;;;6179775;28;20062;-82
2023/01/10 00:06:43;;;;;;;2.65;2.03;;;6.40;99.90;;;;;;6190401;28;20113;-83
2023/01/10 00:09:46;;;;;;;3.33;2.08;;;6.50;99.90;;;;;;6189667;28;20471;-83
2023/01/10 00:16:09;;;;;;;3.35;1.30;;;6.50;99.90;;;;;;6181488;28;20047;-83
2023/01/10 00:19:11;;;;;;;2.85;2.03;;;6.50;99.90;;;;;;6187264;28;20419;-83
2023/01/10 00:22:21;;;;;;;2.08;1.70;;;6.50;99.90;;;;;;6181195;28;20057;-82
2023/01/10 00:25:25;;;;;;;2.33;1.88;;;6.50;99.90;;;;;;6180766;28;20039;-83
2023/01/10 00:28:27;;;;;;;2.40;2.00;;;6.50;99.90;;;;;;6203962;23;20071;-85
2023/01/10 00:31:29;;;;;;;2.85;1.60;;;6.50;99.90;;;;;;6180871;28;20132;-84
2023/01/10 00:34:31;;;;;;;2.58;2.03;;;6.50;99.90;;;;;;6181287;28;20046;-84
2023/01/10 00:37:33;;;;;;;3.97;1.83;;;6.50;99.90;;;;;;6180809;28;20057;-83
2023/01/10 00:40:36;;;;;;;2.05;1.67;;;6.40;99.90;;;;;;6183651;28;20054;-83
2023/01/10 00:46:56;;;;;;;4.03;1.90;;;6.40;99.90;;;;;;6184432;28;20066;-83
2023/01/10 00:49:58;;;;;;;1.55;1.45;;;6.40;99.90;;;;;;6186105;28;20183;-84
2023/01/10 00:53:00;;;;;;;3.78;1.85;;;6.40;99.90;;;;;;6185445;28;20043;-83
2023/01/10 00:56:03;;;;;;;2.65;2.22;;;6.40;99.90;;;;;;6183138;28;20058;-83
2023/01/10 00:59:06;;;;;;;4.80;2.08;;;6.40;99.90;;;;;;6182325;28;20058;-83
2023/01/10 01:02:08;;;;;;;7.25;2.55;;;6.40;99.90;;;;;;6181876;28;20096;-83
2023/01/10 01:05:09;;;;;;;4.90;1.90;;;6.40;99.90;;;;;;6180338;28;20047;-83
2023/01/10 01:08:13;;;;;;;2.65;1.42;;;6.40;99.90;;;;;;6186456;28;20046;-83
2023/01/10 01:11:16;;;;;;;1.98;1.23;;;6.40;99.90;;;;;;6180041;28;20058;-84
2023/01/10 01:14:18;;;;;;;3.15;2.00;;;6.50;99.90;;;;;;6177449;28;20059;-84
2023/01/10 01:17:22;;;;;;;3.35;1.73;;;6.50;99.90;;;;;;6178256;28;20043;-84
2023/01/10 01:20:24;;;;;;;8.82;1.90;;;6.50;99.90;;;;;;6178474;28;20125;-83
2023/01/10 01:23:26;;;;;;;6.28;1.90;;;6.50;99.90;;;;;;6180247;28;20047;-83
2023/01/10 01:26:30;;;;;;;8.05;2.17;;;6.50;99.90;;;;;;6188603;28;20679;-84
2023/01/10 01:29:33;;;;;;;4.28;1.33;;;6.50;99.90;;;;;;6201127;28;20057;-84
2023/01/10 01:32:35;;;;;;;3.70;1.38;;;6.50;99.90;;;;;;6200658;28;20054;-84
2023/01/10 01:35:37;;;;;;;6.45;1.88;;;6.50;99.90;;;;;;6200559;28;20143;-84
2023/01/10 01:38:40;;;;;;;2.42;1.20;;;6.50;99.90;;;;;;6198828;28;20412;-83
2023/01/10 01:45:39;;;;;;;1.77;1.30;;;6.50;99.90;;;;;;6211291;28;20061;-84
2023/01/10 01:48:42;;;;;;;0.77;0.77;;;6.40;99.90;;;;;;6182160;28;20062;-84
2023/01/10 01:51:47;;;;;;;5.13;1.77;;;6.40;99.90;;;;;;6182550;28;20062;-84
2023/01/10 01:54:49;;;;;;;4.20;0.90;;;6.40;99.90;;;;;;6182949;28;20051;-84
2023/01/10 01:57:55;;;;;;;1.10;1.02;;;6.30;99.90;;;;;;6183201;28;20047;-84
2023/01/10 02:00:58;;;;;;;0.98;0.88;;;6.30;99.90;;;;;;6182907;28;20412;-84
2023/01/10 02:04:06;;;;;;;3.17;0.98;;;6.30;99.90;;;;;;6184196;28;20055;-83
2023/01/10 02:07:10;;;;;;;1.05;0.90;;;6.30;99.90;;;;;;6183878;28;20057;-84
2023/01/10 02:10:15;;;;;;;2.13;0.85;;;6.30;99.90;;;;;;6182973;28;20053;-84
2023/01/10 02:13:22;;;;;;;3.67;1.17;;;6.30;99.90;;;;;;6181822;28;20058;-84
2023/01/10 02:16:23;;;;;;;2.65;1.02;;;6.30;99.90;;;;;;6183437;28;20055;-84
2023/01/10 02:19:37;;;;;;;2.10;1.63;;;6.30;99.90;;;;;;6181808;28;20058;-84
2023/01/10 02:23:30;;;;;;;2.72;0.90;;;6.20;99.90;;;;;;6182005;28;20057;-84
2023/01/10 02:26:57;;;;;;;4.00;0.98;;;6.20;99.90;;;;;;6099533;29;20067;-84
2023/01/10 02:30:44;;;;;;;1.27;0.95;;;6.30;99.90;;;;;;6183416;28;20047;-83
2023/01/10 02:33:55;;;;;;;3.65;1.30;;;6.30;99.90;;;;;;6148956;28;20069;-84
2023/01/10 02:37:05;;;;;;;3.17;1.88;;;6.30;99.90;;;;;;6178754;28;20047;-84
2023/01/10 02:40:13;;;;;;;1.75;1.00;;;6.30;99.90;;;;;;6178570;28;20057;-83
2023/01/10 02:43:19;;;;;;;3.83;1.40;;;6.20;99.90;;;;;;6178173;28;20050;-83
2023/01/10 02:46:26;;;;;;;1.67;1.17;;;6.30;99.90;;;;;;6178223;28;20054;-83
2023/01/10 02:49:29;;;;;;;1.25;0.80;;;6.20;99.90;;;;;;6179121;28;20047;-83
2023/01/10 02:52:31;;;;;;;1.15;0.93;;;6.20;99.90;;;;;;6180733;28;20054;-83
2023/01/10 02:55:44;;;;;;;3.13;1.60;;;6.20;99.90;;;;;;6181363;28;20055;-83
2023/01/10 02:59:02;;;;;;;4.07;1.40;;;6.20;99.90;;;;;;6179600;28;20054;-84
2023/01/10 03:02:10;;;;;;;5.15;1.00;;;6.20;99.90;;;;;;6181336;28;20061;-83
2023/01/10 03:05:23;;;;;;;8.57;1.95;;;6.20;99.90;;;;;;6181666;28;20050;-84
2023/01/10 03:08:31;;;;;;;2.92;1.00;;;6.20;99.90;;;;;;6180898;28;20500;-84
2023/01/10 03:11:43;;;;;;;1.80;1.17;;;6.20;99.90;;;;;;6180901;28;20059;-83
2023/01/10 03:14:47;;;;;;;5.38;1.35;;;6.20;99.90;;;;;;6182263;28;20525;-84
2023/01/10 03:17:54;;;;;;;8.77;2.35;;;6.10;99.90;;;;;;6181038;28;20053;-83
2023/01/10 03:20:59;;;;;;;3.10;1.55;;;6.10;99.90;;;;;;6182588;28;20058;-83
2023/01/10 03:24:05;;;;;;;2.85;1.23;;;6.10;99.90;;;;;;6180944;28;20055;-82
2023/01/10 03:27:12;;;;;;;8.52;1.73;;;6.00;99.90;;;;;;6177419;28;20047;-82
2023/01/10 03:30:24;;;;;;;10.40;2.00;;;6.00;99.90;;;;;;6179941;28;20428;-83
2023/01/10 03:33:30;;;;;;;7.68;2.05;;;6.00;99.90;;;;;;6181579;28;20049;-83
2023/01/10 03:36:39;;;;;;;4.18;1.85;;;6.00;99.90;;;;;;6189310;28;20047;-83
2023/01/10 03:39:50;;;;;;;9.88;1.65;;;6.00;99.90;;;;;;6189314;28;20057;-83
2023/01/10 03:46:26;;;;;;;7.55;2.58;;;5.90;99.90;;;;;;6182949;28;20035;-83
2023/01/10 03:49:29;;;;;;;3.95;3.05;;;5.80;99.90;;;;;;6182795;28;20054;-83
2023/01/10 03:52:34;;;;;;;12.25;2.75;;;5.80;99.90;;;;;;6182963;28;20416;-82
2023/01/10 03:55:36;;;;;;;13.55;3.72;;;5.70;99.90;;;;;;6184102;28;20050;-83
2023/01/10 03:58:37;;;;;;;12.82;3.33;;;5.80;99.90;;;;;;6180790;28;20138;-83
2023/01/10 04:01:39;;;;;;;15.73;3.25;;;5.90;99.90;;;;;;6182399;28;20050;-83
2023/01/10 04:04:41;;;;;;;11.77;3.10;;;5.90;99.90;;;;;;6184447;28;20047;-83
2023/01/10 04:07:44;;;;;;;10.35;2.90;;;6.00;99.90;;;;;;6185409;28;20050;-83
2023/01/10 04:10:48;;;;;;;23.67;3.72;;;6.10;99.90;;;;;;6184268;28;20047;-83
2023/01/10 04:13:50;;;;;;;9.60;2.42;;;6.10;99.90;;;;;;6184923;28;20043;-82
2023/01/10 04:16:53;;;;;;;12.70;2.28;;;6.10;99.90;;;;;;6186259;28;20058;-82
2023/01/10 04:19:54;;;;;;;15.25;4.22;;;6.10;99.90;;;;;;6186321;28;20062;-82
2023/01/10 04:22:57;;;;;;;11.43;2.35;;;6.20;99.90;;;;;;6185662;28;20267;-83
2023/01/10 04:25:59;;;;;;;11.00;3.17;;;6.20;99.90;;;;;;6186733;28;20511;-83
2023/01/10 04:29:01;;;;;;;8.23;2.10;;;6.20;99.90;;;;;;6185664;28;20046;-83
2023/01/10 04:32:02;;;;;;;13.20;3.65;;;6.20;99.90;;;;;;6186648;28;20061;-84
2023/01/10 04:35:04;;;;;;;11.70;2.30;;;6.20;99.90;;;;;;6184049;28;20058;-83
2023/01/10 04:38:07;;;;;;;8.90;3.17;;;6.20;99.90;;;;;;6183532;28;20065;-83
2023/01/10 04:41:09;;;;;;;15.90;3.05;;;6.20;99.90;;;;;;6186071;28;20062;-83
2023/01/10 04:44:11;;;;;;;11.75;3.25;;;6.20;99.90;;;;;;6187007;28;20054;-84
2023/01/10 04:47:13;;;;;;;18.10;2.05;;;6.20;99.90;;;;;;6185005;28;20047;-83
2023/01/10 04:50:15;;;;;;;14.38;2.92;;;6.20;99.90;;;;;;6183068;28;20054;-83
2023/01/10 04:53:18;;;;;;;15.00;2.95;;;6.20;99.90;;;;;;6184128;28;20054;-83
2023/01/10 04:56:22;;;;;;;12.10;3.40;;;6.20;99.90;;;;;;6183919;28;20057;-83
2023/01/10 04:59:23;;;;;;;8.52;2.40;;;6.20;99.90;;;;;;6180001;28;20043;-82
2023/01/10 05:02:25;;;;;;;10.10;3.08;;;6.20;99.90;;;;;;6181413;28;20051;-82
2023/01/10 05:05:27;;;;;;;8.35;2.63;;;6.20;99.90;;;;;;6180412;28;20049;-83
2023/01/10 05:08:30;;;;;;;18.00;3.47;;;6.20;99.90;;;;;;6180352;28;20511;-83
2023/01/10 05:11:31;;;;;;;13.77;2.95;;;6.20;99.90;;;;;;6181258;28;20515;-82
2023/01/10 05:14:33;;;;;;;18.63;3.13;;;6.20;99.90;;;;;;6178917;28;20050;-83
2023/01/10 05:17:35;;;;;;;7.80;3.03;;;6.20;99.90;;;;;;6179132;28;20054;-82
2023/01/10 05:20:37;;;;;;;4.88;2.20;;;6.10;99.90;;;;;;6179507;28;20142;-82
2023/01/10 05:23:40;;;;;;;10.77;2.60;;;6.20;99.90;;;;;;6180908;28;20055;-82
2023/01/10 05:26:42;;;;;;;10.02;3.42;;;6.20;99.90;;;;;;6179582;28;20504;-83
2023/01/10 05:29:43;;;;;;;8.25;2.60;;;6.20;99.90;;;;;;6178410;28;20051;-82
2023/01/10 05:32:45;;;;;;;23.92;3.33;;;6.20;99.90;;;;;;6179119;28;20057;-83
2023/01/10 05:35:47;;;;;;;29.52;3.17;;;6.20;99.90;;;;;;6179639;28;20051;-82
2023/01/10 05:38:50;;;;;;;11.82;3.10;;;6.20;99.90;;;;;;6180285;28;20043;-82
2023/01/10 05:41:51;;;;;;;10.30;3.05;;;6.20;99.90;;;;;;6181218;28;20054;-83
2023/01/10 05:44:53;;;;;;;7.07;2.35;;;6.20;99.90;;;;;;6180682;28;20039;-82
2023/01/10 05:47:55;;;;;;;10.55;2.47;;;6.20;99.90;;;;;;6180640;28;20047;-82
2023/01/10 05:50:56;;;;;;;6.05;2.50;;;6.20;99.90;;;;;;6179957;28;20047;-82
2023/01/10 05:53:59;;;;;;;11.60;3.10;;;6.20;99.90;;;;;;6181531;28;20073;-82
2023/01/10 05:57:01;;;;;;;18.45;2.92;;;6.20;99.90;;;;;;6182483;28;20139;-82
2023/01/10 06:00:05;;;;;;;9.88;2.85;;;6.20;99.90;;;;;;6183713;28;20489;-82
2023/01/10 06:03:06;;;;;;;9.88;2.65;;;6.20;99.90;;;;;;6181010;28;20049;-82
2023/01/10 06:06:08;;;;;;;8.85;3.97;;;6.20;99.90;;;;;;6178608;28;20058;-82
2023/01/10 06:09:11;;;;;;;12.88;2.53;;;6.20;99.90;;;;;;6180946;28;20046;-82
2023/01/10 06:12:13;;;;;;;18.13;3.03;;;6.30;99.90;;;;;;6184047;28;20526;-83
2023/01/10 06:15:15;;;;;;;7.65;2.38;;;6.30;99.90;;;;;;6186732;28;20047;-83
2023/01/10 06:18:17;;;;;;;8.82;2.80;;;6.30;99.90;;;;;;6187102;28;20046;-81
2023/01/10 06:21:19;;;;;;;11.10;3.88;;;6.30;99.90;;;;;;6190391;28;20106;-82
2023/01/10 06:24:21;;;;;;;17.17;4.03;;;6.30;99.90;;;;;;6179777;28;20058;-82
2023/01/10 06:27:23;;;;;;;18.60;3.38;;;6.20;99.90;;;;;;6183702;28;20050;-80
2023/01/10 06:30:25;;;;;;;9.38;2.75;;;6.30;99.90;;;;;;6185233;28;20054;-80
2023/01/10 06:33:26;;;;;;;8.90;3.40;;;6.30;99.90;;;;;;6184704;28;20081;-81
2023/01/10 06:36:28;;;;;;;14.63;2.83;;;6.30;99.90;;;;;;6185074;28;20493;-80
2023/01/10 06:39:34;;;;;;;14.23;2.70;;;6.30;99.90;;;;;;6184696;28;20051;-81
2023/01/10 06:42:36;;;;;;;12.55;3.55;;;6.30;99.90;;;;;;6181334;28;20401;-81
2023/01/10 06:45:38;;;;;;;8.25;2.60;;;6.30;99.90;;;;;;6182733;28;20050;-80
2023/01/10 06:48:42;;;;;;;9.07;2.90;;;6.30;99.90;;;;;;6181514;28;20050;-80
2023/01/10 06:51:43;;;;;;;11.18;3.80;;;6.30;99.90;;;;;;6183344;28;20055;-80
2023/01/10 06:54:47;;;;;;;19.08;3.25;;;6.30;99.90;;;;;;6184363;28;20057;-81
2023/01/10 06:57:54;;;;;;;13.57;3.70;;;6.30;99.90;;;;;;6184320;28;20397;-80
2023/01/10 07:00:55;;;;;;;5.22;3.50;;;6.30;99.90;;;;;;6192218;28;20486;-80
2023/01/10 07:03:57;;;;;;;11.38;2.38;;;6.20;99.90;;;;;;6196012;28;20055;-81
2023/01/10 07:06:59;;;;;;;12.82;2.85;;;6.10;99.90;;;;;;6194194;28;20106;-81
2023/01/10 07:10:02;;;;;;;16.02;3.17;;;6.10;99.90;;;;;;6192754;28;20053;-81
2023/01/10 07:13:04;;;;;;;14.75;4.75;;;6.00;99.90;;;;;;6192803;28;20058;-81
2023/01/10 07:16:07;;;;;;;16.65;7.15;;;6.00;99.90;;;;;;6195313;28;20423;-81
2023/01/10 07:19:12;;;;;;;20.55;3.63;;;6.00;99.90;;;;;;6205438;28;20049;-81
2023/01/10 07:22:13;;;;;;;17.52;3.72;;;6.10;99.90;;;;;;6205101;28;20427;-81
2023/01/10 07:25:17;;;;;;;14.25;3.03;;;6.10;99.90;;;;;;6201093;28;20048;-80
2023/01/10 07:28:19;;;;;;;10.70;4.20;;;6.10;99.90;;;;;;6200394;28;20047;-80
2023/01/10 07:31:22;;;;;;;21.77;6.38;;;6.20;99.90;;;;;;6178867;28;20050;-81
2023/01/10 07:34:24;;;;;;;18.30;4.75;;;6.20;99.90;;;;;;6180013;28;20053;-81
2023/01/10 07:37:26;;;;;;;11.32;3.42;;;6.20;99.90;;;;;;6179092;28;20489;-81
2023/01/10 07:40:29;;;;;;;11.82;4.97;;;6.20;99.90;;;;;;6183204;28;20416;-81
2023/01/10 07:43:31;;;;;;;21.15;5.88;;;6.20;99.90;;;;;;6182296;28;20058;-80
2023/01/10 07:46:32;;;;;;;7.82;3.03;;;6.30;99.90;;;;;;6191313;28;20046;-84
2023/01/10 07:49:34;;;;;;;21.63;4.25;;;6.30;99.90;;;;;;6204883;28;20054;-81
2023/01/10 07:52:37;;;;;;;16.60;3.60;;;6.30;99.90;;;;;;6193985;28;20059;-81
2023/01/10 07:55:40;;;;;;;10.68;5.00;;;6.30;99.90;;;;;;6194636;28;20485;-81
2023/01/10 07:58:42;;;;;;;10.55;4.38;;;6.40;99.90;;;;;;6192108;28;20053;-81
2023/01/10 08:01:43;;;;;;;13.45;3.70;;;6.40;99.90;;;;;;6191022;28;20552;-82
2023/01/10 08:04:45;;;;;;;12.68;3.72;;;6.40;99.90;;;;;;6191418;28;20067;-81
2023/01/10 08:07:47;;;;;;;11.70;4.80;;;6.40;99.90;;;;;;6189387;28;20051;-80
2023/01/10 08:10:50;;;;;;;16.33;4.72;;;6.50;99.90;;;;;;6188463;28;20836;-79
2023/01/10 08:13:51;;;;;;;5.80;3.63;;;6.50;99.90;;;;;;6148243;28;20061;-80
2023/01/10 08:16:53;;;;;;;12.25;3.47;;;6.50;99.90;;;;;;6186888;28;20052;-79
2023/01/10 08:19:55;;;;;;;11.70;5.93;;;6.60;99.90;;;;;;6184923;28;20054;-80
2023/01/10 08:22:57;;;;;;;12.27;3.38;;;6.60;99.90;;;;;;6187091;28;20058;-82
2023/01/10 08:26:00;;;;;;;8.75;3.40;;;6.60;99.90;;;;;;6182270;28;20054;-80
2023/01/10 08:29:06;;;;;;;8.10;2.97;;;6.60;99.90;;;;;;6182841;28;20051;-79
2023/01/10 08:32:08;;;;;;;12.15;4.80;;;6.60;99.90;;;;;;6186407;28;20049;-78
2023/01/10 08:35:10;;;;;;;10.60;3.78;;;6.70;99.90;;;;;;6184041;28;20051;-81
2023/01/10 08:38:12;;;;;;;9.02;3.13;;;6.70;99.90;;;;;;6183430;28;20047;-80
2023/01/10 08:41:15;;;;;;;16.52;4.03;;;6.80;99.90;;;;;;6187291;28;20070;-79
2023/01/10 08:44:17;;;;;;;11.63;3.78;;;6.80;99.90;;;;;;6186870;28;20069;-80
2023/01/10 08:47:19;;;;;;;10.90;5.13;;;6.80;99.90;;;;;;6183870;28;20543;-80
2023/01/10 08:50:20;;;;;;;9.75;4.63;;;6.80;99.90;;;;;;6182872;28;20439;-78
2023/01/10 08:53:22;;;;;;;14.13;3.22;;;6.90;99.90;;;;;;6183799;28;20505;-80
2023/01/10 08:56:25;;;;;;;11.27;3.75;;;6.90;99.90;;;;;;6181109;28;20070;-80
2023/01/10 08:59:27;;;;;;;6.88;2.83;;;6.90;99.90;;;;;;6193605;28;20061;-80
2023/01/10 09:02:29;;;;;;;11.30;3.35;;;6.90;99.90;;;;;;6210925;28;20046;-81
2023/01/10 09:05:30;;;;;;;10.93;3.95;;;6.80;99.90;;;;;;6209267;28;20050;-79
2023/01/10 09:08:32;;;;;;;14.40;3.75;;;6.90;99.90;;;;;;6209163;28;20053;-79
2023/01/10 09:11:35;;;;;;;16.98;3.40;;;6.90;99.90;;;;;;6208528;28;20061;-80
2023/01/10 09:14:37;;;;;;;12.38;3.50;;;7.00;99.90;;;;;;6207381;28;20435;-81
2023/01/10 09:17:39;;;;;;;9.82;3.30;;;7.00;99.90;;;;;;6206731;28;20062;-82
2023/01/10 09:20:41;;;;;;;6.38;2.70;;;7.00;99.90;;;;;;6207584;28;20507;-80
2023/01/10 09:23:43;;;;;;;5.07;2.45;;;7.00;99.90;;;;;;6208501;28;20412;-80
2023/01/10 09:26:46;;;;;;;13.10;3.22;;;7.00;99.90;;;;;;6202264;28;20125;-82
2023/01/10 09:29:48;;;;;;;10.43;2.22;;;7.00;99.90;;;;;;6199160;28;20054;-82
2023/01/10 09:32:50;;;;;;;5.82;3.00;;;7.00;99.90;;;;;;6182951;28;20057;-82
2023/01/10 09:35:52;;;;;;;9.85;3.58;;;7.10;99.90;;;;;;6186121;28;20409;-81
2023/01/10 09:38:53;;;;;;;9.02;2.78;;;7.10;99.90;;;;;;6185651;28;20049;-83
2023/01/10 09:42:08;;;;;;;8.93;2.00;;;7.10;99.90;;;;;;6184715;28;20061;-82
2023/01/10 09:45:16;;;;;;;4.22;2.42;;;7.20;99.90;;;;;;6184893;28;20046;-83
2023/01/10 09:48:23;;;;;;;5.63;2.22;;;7.30;99.90;;;;;;6187156;28;20054;-83
2023/01/10 09:51:34;;;;;;;6.95;2.80;;;7.30;99.90;;;;;;6185889;28;20042;-80
2023/01/10 09:54:41;;;;;;;7.47;2.47;;;7.40;99.90;;;;;;6184439;28;20509;-81
2023/01/10 09:57:44;;;;;;;6.70;2.50;;;7.40;99.90;;;;;;6191843;28;20054;-81
2023/01/10 10:00:55;;;;;;;9.95;2.42;;;7.40;99.90;;;;;;6182573;28;20055;-79
2023/01/10 10:04:03;;;;;;;11.70;3.47;;;7.50;99.90;;;;;;6182902;28;20055;-81
2023/01/10 10:07:08;;;;;;;;;;;7.40;99.90;;;;;;6185206;28;20055;-82
2023/01/10 10:10:16;;;;;;;9.75;2.38;;;7.50;99.90;;;;;;6184048;28;19928;-81
2023/01/10 10:13:21;;;;;;;;;;;7.50;99.90;;;;;;6185337;28;20428;-81
2023/01/10 10:16:32;;;;;;;6.25;3.17;;;7.60;99.90;;;;;;6184078;28;19922;-82
2023/01/10 10:19:53;;;;;;;9.88;2.80;;;7.60;99.90;;;;;;6184939;28;20046;-82
2023/01/10 10:23:08;;;;;;;10.50;3.42;;;7.60;99.90;;;;;;6189424;28;20046;-83
2023/01/10 10:26:15;;;;;;;5.55;2.20;;;7.60;99.90;;;;;;6200270;28;20073;-82
2023/01/10 10:29:39;;;;;;;10.20;2.45;;;7.50;99.90;;;;;;6204666;28;20047;-82
2023/01/10 10:32:56;;;;;;;7.15;2.30;;;7.50;99.90;;;;;;6195367;28;20057;-82
2023/01/10 10:36:02;;;;;;;10.57;2.67;;;7.70;99.90;;;;;;6196015;28;20065;-82
2023/01/10 10:39:05;;;;;;;3.60;1.60;;;7.90;99.90;;;;;;6193545;28;20046;-82
2023/01/10 10:42:13;;;;;;;9.38;3.40;;;7.90;99.90;;;;;;6194700;28;20057;-82
2023/01/10 10:45:17;;;;;;;;;;;8.00;99.90;;;;;;6194316;28;20047;-82
2023/01/10 10:48:24;;;;;;;18.10;3.25;;;8.10;99.90;;;;;;6192170;28;19922;-82
2023/01/10 10:51:29;;;;;;;6.70;1.75;;;8.20;99.90;;;;;;6191349;28;20515;-81
2023/01/10 10:54:33;;;;;;;7.63;2.75;;;8.20;99.90;;;;;;6190655;28;20054;-82
2023/01/10 10:57:38;;;;;;;12.55;4.97;;;8.20;99.90;;;;;;6196940;28;20066;-82
2023/01/10 11:00:41;;;;;;;7.50;2.25;;;8.20;99.90;;;;;;6207380;28;20052;-83
2023/01/10 11:03:47;;;;;;;18.08;3.28;;;8.10;99.90;;;;;;6216112;28;20050;-83
2023/01/10 11:06:49;;;;;;;7.85;2.78;;;8.10;99.90;;;;;;6213152;28;20106;-82
2023/01/10 11:09:56;;;;;;;13.07;2.13;;;8.10;99.90;;;;;;6212903;28;20054;-82
2023/01/10 11:13:01;;;;;;;6.85;2.22;;;8.10;99.90;;;;;;6192410;28;20043;-81
2023/01/10 11:16:06;;;;;;;10.68;2.15;;;8.10;99.90;;;;;;6193021;28;20055;-82
2023/01/10 11:19:18;;;;;;;8.73;2.90;;;8.20;99.90;;;;;;6192392;28;20046;-82
2023/01/10 11:22:20;;;;;;;6.32;1.48;;;8.40;99.90;;;;;;6194176;28;20045;-82
2023/01/10 11:25:23;;;;;;;7.78;2.80;;;8.50;99.90;;;;;;6192428;28;20049;-82
2023/01/10 11:28:30;;;;;;;11.48;4.43;;;8.70;99.90;;;;;;6190602;28;20042;-82
2023/01/10 11:31:34;;;;;;;6.57;2.60;;;8.80;99.90;;;;;;6211988;28;20518;-82
2023/01/10 11:34:37;;;;;;;7.47;3.00;;;8.80;99.90;;;;;;6214099;28;20054;-83
2023/01/10 11:37:39;;;;;;;6.90;2.47;;;8.80;99.90;;;;;;6212874;28;20507;-81
2023/01/10 11:40:53;;;;;;;6.88;1.95;;;8.90;99.90;;;;;;6209916;28;20078;-82
2023/01/10 11:44:16;;;;;;;12.75;3.97;;;8.80;99.90;;;;;;6211128;28;20066;-82
2023/01/10 11:47:20;;;;;;;5.05;4.20;;;9.10;99.90;;;;;;6206269;28;20051;-83
2023/01/10 11:50:25;;;;;;;9.05;4.30;;;9.30;99.90;;;;;;6203727;28;20129;-81
2023/01/10 11:53:40;;;;;;;4.38;1.50;;;9.60;99.90;;;;;;6189982;28;20063;-82
2023/01/10 11:56:42;;;;;;;12.02;4.35;;;9.90;99.90;;;;;;6172563;28;20051;-81
2023/01/10 11:59:52;;;;;;;6.78;3.28;;;10.00;99.90;;;;;;6193463;28;20053;-81
2023/01/10 12:02:55;;;;;;;9.15;2.78;;;10.10;99.90;;;;;;6202522;28;20048;-79
2023/01/10 12:06:00;;;;;;;5.43;1.98;;;10.10;99.90;;;;;;6207352;28;20058;-82
2023/01/10 12:09:02;;;;;;;11.80;1.70;;;10.20;99.90;;;;;;6203664;28;20089;-82
2023/01/10 12:12:05;;;;;;;18.20;2.92;;;10.20;99.90;;;;;;6207118;28;20057;-82
2023/01/10 12:15:23;;;;;;;12.10;2.45;;;10.20;99.90;;;;;;6215852;28;20034;-83
2023/01/10 12:18:26;;;;;;;17.70;3.60;;;10.30;99.90;;;;;;6219528;28;20049;-83
2023/01/10 12:21:33;;;;;;;6.63;1.67;;;10.60;99.90;;;;;;6207201;28;20049;-84
2023/01/10 12:24:39;;;;;;;14.15;8.27;;;10.90;99.90;;;;;;6208804;28;20477;-83
2023/01/10 12:27:41;;;;;;;9.48;3.58;;;11.20;99.90;;;;;;6228654;23;20038;-78
2023/01/10 12:30:48;;;;;;;9.80;5.30;;;11.40;99.90;;;;;;6215159;28;20054;-79
2023/01/10 12:33:56;;;;;;;6.17;3.03;;;11.40;99.90;;;;;;6209987;28;20498;-79
2023/01/10 12:37:00;;;;;;;;;;;11.40;99.90;;;;;;6221111;28;20357;-78
2023/01/10 12:40:11;;;;;;;8.13;3.17;;;11.60;99.90;;;;;;6228664;28;19932;-80
2023/01/10 12:46:45;;;;;;;5.45;3.58;;;12.10;99.90;;;;;;6233336;28;20042;-78
2023/01/10 12:49:52;;;;;;;15.20;2.17;;;12.20;99.90;;;;;;6234930;28;20046;-80
2023/01/10 12:53:00;;;;;;;13.73;3.67;;;12.20;99.90;;;;;;6232207;28;20464;-79
2023/01/10 12:56:06;;;;;;;7.13;3.80;;;12.10;99.90;;;;;;6205716;28;20054;-79
2023/01/10 12:59:19;;;;;;;7.68;2.38;;;12.10;99.90;;;;;;6207600;28;20130;-79
2023/01/10 13:02:25;;;;;;;8.90;2.03;;;12.00;99.90;;;;;;6188605;28;20117;-78
2023/01/10 13:05:31;;;;;;;8.65;2.60;;;12.00;99.90;;;;;;6188956;28;20053;-79
2023/01/10 13:08:37;;;;;;;7.45;2.67;;;11.80;99.90;;;;;;6184876;28;20428;-79
2023/01/10 13:11:45;;;;;;;4.70;1.42;;;11.70;99.90;;;;;;6188233;28;20065;-78
2023/01/10 13:14:54;;;;;;;8.25;1.70;;;11.70;99.90;;;;;;6196911;28;20453;-80
2023/01/10 13:18:00;;;;;;;9.98;2.10;;;11.40;99.90;;;;;;6207848;28;20053;-79
2023/01/10 13:21:07;;;;;;;4.47;1.55;;;11.00;99.90;;;;;;6204296;28;20046;-79
2023/01/10 13:24:21;;;;;;;7.57;1.80;;;10.80;99.90;;;;;;6201641;28;20431;-78
2023/01/10 13:27:26;;;;;;;3.17;1.33;;;10.60;99.90;;;;;;6199508;28;20119;-78
2023/01/10 13:30:32;;;;;;;10.52;1.48;;;10.40;99.90;;;;;;6193778;28;20054;-78
2023/01/10 13:33:39;;;;;;;8.57;1.77;;;10.10;99.90;;;;;;6178901;28;20535;-79
2023/01/10 13:36:45;;;;;;;3.30;1.20;;;9.90;99.90;;;;;;6178153;28;20137;-79
2023/01/10 13:39:52;;;;;;;2.65;1.58;;;9.90;99.90;;;;;;6180334;28;20133;-80
2023/01/10 13:43:33;;;;;;;10.97;6.80;;;9.80;99.90;;;;;;6182028;28;20053;-80
2023/01/10 13:46:38;;;;;;;19.63;16.60;;;9.90;99.90;;;;;;6180461;28;20061;-78
2023/01/10 13:49:44;;;;;;;9.15;4.55;;;9.90;99.90;;;;;;6177441;28;20050;-78
2023/01/10 13:52:47;;;;;;;167.40;115.28;;;10.00;99.90;;;;;;6184213;28;20051;-79
2023/01/10 13:55:55;;;;;;;13.75;5.93;;;9.80;99.90;;;;;;6200425;28;20050;-78
2023/01/10 14:02:30;;;;;;;10.55;2.92;;;9.80;99.90;;;;;;6178010;28;20054;-79
2023/01/10 14:05:32;;;;;;;10.43;6.13;;;9.80;99.90;;;;;;6179849;28;20135;-78
2023/01/10 14:08:35;;;;;;;10.45;3.53;;;9.70;99.90;;;;;;6179547;28;20050;-79
2023/01/10 14:11:50;;;;;;;8.50;2.53;;;9.70;99.90;;;;;;6176917;28;20149;-80
2023/01/10 14:14:58;;;;;;;5.20;2.08;;;9.60;99.90;;;;;;6178335;28;20051;-79
2023/01/10 14:18:04;;;;;;;4.82;1.20;;;9.50;99.90;;;;;;6175415;28;20054;-78
2023/01/10 14:21:08;;;;;;;3.67;1.52;;;9.40;99.90;;;;;;6176551;28;20047;-78
2023/01/10 14:24:25;;;;;;;11.05;1.92;;;9.40;99.90;;;;;;6178127;28;20071;-78
2023/01/10 14:27:31;;;;;;;3.28;1.33;;;9.30;99.90;;;;;;6187820;28;20053;-79
2023/01/10 14:30:35;;;;;;;5.25;1.40;;;9.30;99.90;;;;;;6188187;28;20054;-78
2023/01/10 14:33:37;;;;;;;7.65;1.92;;;9.20;99.90;;;;;;6185458;28;20419;-81
2023/01/10 14:36:51;;;;;;;9.25;3.17;;;9.10;99.90;;;;;;6201504;28;20054;-80
2023/01/10 14:39:56;;;;;;;8.00;1.67;;;9.10;99.90;;;;;;6201129;28;20064;-79
2023/01/10 14:43:01;;;;;;;3.13;1.27;;;9.10;99.90;;;;;;6201427;28;20046;-79
2023/01/10 14:46:06;;;;;;;7.63;2.22;;;9.10;99.90;;;;;;6201684;28;20050;-78
2023/01/10 14:49:20;;;;;;;9.77;1.45;;;9.00;99.90;;;;;;6199109;28;20068;-79
2023/01/10 14:52:24;;;;;;;4.20;1.33;;;9.00;99.90;;;;;;6200392;28;20054;-78
2023/01/10 14:55:27;;;;;;;9.45;3.08;;;8.90;99.90;;;;;;6200207;28;20058;-79
2023/01/10 14:58:28;;;;;;;9.93;2.53;;;8.80;99.90;;;;;;6205136;28;20046;-78
2023/01/10 15:01:30;;;;;;;4.82;1.83;;;8.80;99.90;;;;;;6179746;28;20058;-80
2023/01/10 15:04:35;;;;;;;7.85;1.50;;;8.80;99.90;;;;;;6183993;28;20054;-79
2023/01/10 15:07:38;;;;;;;8.38;2.25;;;8.80;99.90;;;;;;6175561;28;20062;-79
2023/01/10 15:10:42;;;;;;;3.78;1.80;;;8.70;99.90;;;;;;6177096;28;20053;-79
2023/01/10 15:13:50;;;;;;;67.82;29.55;;;8.70;99.90;;;;;;6177006;28;20058;-80
2023/01/10 15:16:54;;;;;;;6.32;2.38;;;8.60;99.90;;;;;;6180094;28;20050;-80
2023/01/10 15:19:56;;;;;;;8.68;4.00;;;8.60;99.90;;;;;;6187058;28;20445;-80
2023/01/10 15:23:00;;;;;;;2.92;1.15;;;8.50;99.90;;;;;;6182166;28;20057;-78
2023/01/10 15:26:06;;;;;;;8.65;2.38;;;8.50;99.90;;;;;;6204785;28;20050;-80
2023/01/10 15:29:15;;;;;;;16.48;6.20;;;8.40;99.90;;;;;;6224716;28;20061;-79
2023/01/10 15:32:23;;;;;;;2.70;1.20;;;8.40;99.90;;;;;;6206693;28;20508;-79
2023/01/10 15:35:28;;;;;;;9.35;1.27;;;8.40;99.90;;;;;;6197353;28;20053;-79
2023/01/10 15:38:33;;;;;;;3.80;1.70;;;8.30;99.90;;;;;;6197066;28;20054;-79
2023/01/10 15:41:37;;;;;;;5.18;2.45;;;8.30;99.90;;;;;;6201265;28;20047;-78
2023/01/10 15:44:43;;;;;;;3.28;1.27;;;8.20;99.90;;;;;;6208864;28;20073;-79
2023/01/10 15:47:51;;;;;;;8.68;2.88;;;8.10;99.90;;;;;;6209360;28;20061;-80
2023/01/10 15:50:54;;;;;;;;;;;8.10;99.90;;;;;;6205725;28;20057;-79
2023/01/10 15:54:02;;;;;;;4.05;1.35;;;8.00;99.90;;;;;;6204276;28;19922;-79
2023/01/10 15:57:22;;;;;;;2.97;1.17;;;8.00;99.90;;;;;;6204883;28;20046;-78
2023/01/10 16:00:26;;;;;;;5.70;1.45;;;7.90;99.90;;;;;;6190298;28;20047;-78
2023/01/10 16:03:32;;;;;;;8.63;2.38;;;7.80;99.90;;;;;;6181540;28;20054;-79
2023/01/10 16:06:37;;;;;;;6.38;1.92;;;7.80;99.90;;;;;;6180967;28;20161;-77
2023/01/10 16:09:40;;;;;;;5.05;2.10;;;7.80;99.90;;;;;;6179925;28;20057;-78
2023/01/10 16:16:10;;;;;;;3.95;1.58;;;7.70;99.90;;;;;;6181975;28;20055;-78
2023/01/10 16:19:11;;;;;;;7.75;1.85;;;7.70;99.90;;;;;;6178499;28;20437;-79
2023/01/10 16:22:17;;;;;;;6.95;1.50;;;7.70;99.90;;;;;;6180457;28;20425;-78
2023/01/10 16:25:23;;;;;;;3.35;2.03;;;7.60;99.90;;;;;;6180080;28;20057;-78
2023/01/10 16:28:34;;;;;;;15.30;3.40;;;7.60;99.90;;;;;;6193189;28;20046;-78
2023/01/10 16:31:37;;;;;;;5.03;2.28;;;7.60;99.90;;;;;;6200614;28;20452;-78
2023/01/10 16:34:39;;;;;;;9.95;2.80;;;7.60;99.90;;;;;;6203762;28;20507;-78